NATURA VA

 METAR AND TAF INFORMATION
METAR FOR LEBA
ADDS - METARS form results

(1623 UTC 26 March 2019)
Data provider http://aviationweather.gov/metar/data/
 
METAR text: LEBA 261600Z 05006KT 340V110 CAVOK 27/M00 Q1010
Conditions at: LEBA (CORDOBA AIRPORT , ES) observed 1600 UTC 26 March 2019
Temperature: 27.0°C (81°F)
Dewpoint: 0.0°C (32°F) [RH = 17%]
Pressure (altimeter): 29.82 inches Hg (1010.0 mb)
Winds: from the NE (50 degrees) at 7 MPH (6 knots; 3.1 m/s)
Visibility: 6 or more miles (10+ km)
Ceiling: ceiling and visibility are OK
Clouds: unknown
Weather: no significant weather observed at this time

METAR text: LEBA 261530Z 05009KT 360V110 CAVOK 28/M01 Q1010
Conditions at: LEBA (CORDOBA AIRPORT , ES) observed 1530 UTC 26 March 2019
Temperature: 28.0°C (82°F)
Dewpoint: -1.0°C (30°F) [RH = 15%]
Pressure (altimeter): 29.82 inches Hg (1010.0 mb)
Winds: from the NE (50 degrees) at 10 MPH (9 knots; 4.6 m/s)
Visibility: 6 or more miles (10+ km)
Ceiling: ceiling and visibility are OK
Clouds: unknown
Weather: no significant weather observed at this time

Forecast for: LEBA (CORDOBA AIRPORT , ES)
Text: TAF LEBA 261400Z 2615/2624 06014KT CAVOK
Forecast period: 1500 UTC 26 March 2019 to 0000 UTC 27 March 2019
Forecast type: FROM: standard forecast or significant change
Winds: from the ENE (60 degrees) at 16 MPH (14 knots; 7.2 m/s)
Visibility: 6 or more miles 10+ km)
Ceiling: unknown
Clouds: missing
Weather: NSW  (no significant weather)
Text: PROB40
Forecast period: 1500 to 2100 UTC 26 March 2019
Forecast type: TEMPORARY: The following changes expected for less than half the time period
Winds: from the ENE (60 degrees) at 17 MPH (15 knots; 7.7 m/s)
gusting to 29 MPH (25 knots; 12.9 m/s)
Visibility: missing
Ceiling: unknown
Clouds: missing
Weather: no significant weather forecast for this period

 AIRPORT MAP

 RUNWAY INFORMATION
Runway 03 Runway length 4527 ft Runway width 148 ft
Runway elevation 293 ft Runway displaced threshold 0 ft Runway heading 29
Runway 21 Runway length 4527 ft Runway width 148 ft
Runway elevation 297 ft Runway displaced threshold 0 ft Runway heading 209

 AIRPORT FREQUENCIES
Type CTAF Name CTAF Frequency 118.3 MHZ

 AIRPORT NEAR NAVIGATION AIDS
Type VOR-DME Name Cordoba Frequency 112400 KHZ
Type NDB Name Cordoba Frequency 366 KHZ



Powered by Virtual Airlines Manager [v2.6.2]